sensor_id;sensor_type;location;lat;lon;timestamp;temperature;humidity
11059;DHT22;5582;59.272;15.220;2022-07-23T00:01:30;14.60;1.40
11059;DHT22;5582;59.272;15.220;2022-07-23T00:03:55;14.90;1.40
11059;DHT22;5582;59.272;15.220;2022-07-23T00:06:22;14.70;1.40
11059;DHT22;5582;59.272;15.220;2022-07-23T00:08:48;14.60;1.40
11059;DHT22;5582;59.272;15.220;2022-07-23T00:11:14;14.60;1.40
11059;DHT22;5582;59.272;15.220;2022-07-23T00:13:40;14.60;1.40
11059;DHT22;5582;59.272;15.220;2022-07-23T00:16:06;14.60;1.40
11059;DHT22;5582;59.272;15.220;2022-07-23T00:18:32;14.60;1.40
11059;DHT22;5582;59.272;15.220;2022-07-23T00:20:58;14.60;1.40
11059;DHT22;5582;59.272;15.220;2022-07-23T00:23:23;14.60;1.40
11059;DHT22;5582;59.272;15.220;2022-07-23T00:25:51;14.60;1.40
11059;DHT22;5582;59.272;15.220;2022-07-23T00:28:17;14.60;1.40
11059;DHT22;5582;59.272;15.220;2022-07-23T00:30:44;14.60;1.40
11059;DHT22;5582;59.272;15.220;2022-07-23T00:33:10;14.50;1.40
11059;DHT22;5582;59.272;15.220;2022-07-23T00:35:37;14.50;1.40
11059;DHT22;5582;59.272;15.220;2022-07-23T00:38:06;14.50;1.40
11059;DHT22;5582;59.272;15.220;2022-07-23T00:40:33;14.50;1.40
11059;DHT22;5582;59.272;15.220;2022-07-23T00:42:59;14.50;1.40
11059;DHT22;5582;59.272;15.220;2022-07-23T00:45:25;14.50;1.40
11059;DHT22;5582;59.272;15.220;2022-07-23T00:47:51;14.50;1.40
11059;DHT22;5582;59.272;15.220;2022-07-23T00:50:17;14.40;1.40
11059;DHT22;5582;59.272;15.220;2022-07-23T00:52:42;14.50;1.40
11059;DHT22;5582;59.272;15.220;2022-07-23T00:55:09;14.40;1.40
11059;DHT22;5582;59.272;15.220;2022-07-23T00:57:36;14.40;1.40
11059;DHT22;5582;59.272;15.220;2022-07-23T01:00:04;14.40;1.40
11059;DHT22;5582;59.272;15.220;2022-07-23T01:02:30;14.40;1.40
11059;DHT22;5582;59.272;15.220;2022-07-23T01:04:56;14.40;1.40
11059;DHT22;5582;59.272;15.220;2022-07-23T01:07:22;14.40;1.40
11059;DHT22;5582;59.272;15.220;2022-07-23T01:09:47;14.40;1.40
11059;DHT22;5582;59.272;15.220;2022-07-23T01:12:14;14.40;1.40
11059;DHT22;5582;59.272;15.220;2022-07-23T01:14:40;14.40;1.40
11059;DHT22;5582;59.272;15.220;2022-07-23T01:17:05;14.40;1.40
11059;DHT22;5582;59.272;15.220;2022-07-23T01:19:31;14.40;1.40
11059;DHT22;5582;59.272;15.220;2022-07-23T01:21:57;14.50;1.40
11059;DHT22;5582;59.272;15.220;2022-07-23T01:24:24;14.40;1.40
11059;DHT22;5582;59.272;15.220;2022-07-23T01:26:50;14.40;1.40
11059;DHT22;5582;59.272;15.220;2022-07-23T01:29:16;14.40;1.40
11059;DHT22;5582;59.272;15.220;2022-07-23T01:31:43;14.50;1.40
11059;DHT22;5582;59.272;15.220;2022-07-23T01:34:09;14.50;1.40
11059;DHT22;5582;59.272;15.220;2022-07-23T01:36:35;14.40;1.40
11059;DHT22;5582;59.272;15.220;2022-07-23T01:39:03;14.40;1.40
11059;DHT22;5582;59.272;15.220;2022-07-23T01:41:29;14.40;1.40
11059;DHT22;5582;59.272;15.220;2022-07-23T01:43:54;14.50;1.40
11059;DHT22;5582;59.272;15.220;2022-07-23T01:46:20;13.80;1.40
11059;DHT22;5582;59.272;15.220;2022-07-23T01:48:46;14.50;1.40
11059;DHT22;5582;59.272;15.220;2022-07-23T01:51:11;14.40;1.40
11059;DHT22;5582;59.272;15.220;2022-07-23T01:53:37;14.40;1.40
11059;DHT22;5582;59.272;15.220;2022-07-23T01:56:03;14.40;1.40
11059;DHT22;5582;59.272;15.220;2022-07-23T01:58:29;14.40;1.40
11059;DHT22;5582;59.272;15.220;2022-07-23T02:00:55;14.40;1.40
11059;DHT22;5582;59.272;15.220;2022-07-23T02:03:21;14.40;1.40
11059;DHT22;5582;59.272;15.220;2022-07-23T02:05:47;14.40;1.40
11059;DHT22;5582;59.272;15.220;2022-07-23T02:08:12;14.30;1.40
11059;DHT22;5582;59.272;15.220;2022-07-23T02:10:38;14.30;1.40
11059;DHT22;5582;59.272;15.220;2022-07-23T02:13:04;14.30;1.40
11059;DHT22;5582;59.272;15.220;2022-07-23T02:15:29;14.40;1.40
11059;DHT22;5582;59.272;15.220;2022-07-23T02:17:55;14.40;1.40
11059;DHT22;5582;59.272;15.220;2022-07-23T02:20:21;14.40;1.40
11059;DHT22;5582;59.272;15.220;2022-07-23T02:22:47;14.40;1.40
11059;DHT22;5582;59.272;15.220;2022-07-23T02:25:13;14.40;1.40
11059;DHT22;5582;59.272;15.220;2022-07-23T02:27:39;14.50;1.40
11059;DHT22;5582;59.272;15.220;2022-07-23T02:30:05;14.50;1.40
11059;DHT22;5582;59.272;15.220;2022-07-23T02:32:31;14.50;1.40
11059;DHT22;5582;59.272;15.220;2022-07-23T02:34:56;14.40;1.40
11059;DHT22;5582;59.272;15.220;2022-07-23T02:37:22;14.50;1.40
11059;DHT22;5582;59.272;15.220;2022-07-23T02:39:48;14.50;1.40
11059;DHT22;5582;59.272;15.220;2022-07-23T02:42:14;14.50;1.40
11059;DHT22;5582;59.272;15.220;2022-07-23T02:44:39;14.50;1.40
11059;DHT22;5582;59.272;15.220;2022-07-23T02:47:05;14.50;1.40
11059;DHT22;5582;59.272;15.220;2022-07-23T02:49:31;14.50;1.40
11059;DHT22;5582;59.272;15.220;2022-07-23T02:51:57;14.50;1.40
11059;DHT22;5582;59.272;15.220;2022-07-23T02:54:22;14.50;1.40
11059;DHT22;5582;59.272;15.220;2022-07-23T02:56:48;14.50;1.40
11059;DHT22;5582;59.272;15.220;2022-07-23T02:59:16;14.50;1.40
11059;DHT22;5582;59.272;15.220;2022-07-23T03:01:41;14.70;1.40
11059;DHT22;5582;59.272;15.220;2022-07-23T03:04:07;14.50;1.40
11059;DHT22;5582;59.272;15.220;2022-07-23T03:06:32;14.50;1.40
11059;DHT22;5582;59.272;15.220;2022-07-23T03:08:58;14.00;1.40
11059;DHT22;5582;59.272;15.220;2022-07-23T03:11:24;14.50;1.40
11059;DHT22;5582;59.272;15.220;2022-07-23T03:13:50;14.50;1.40
11059;DHT22;5582;59.272;15.220;2022-07-23T03:16:15;14.60;1.40
11059;DHT22;5582;59.272;15.220;2022-07-23T03:18:41;14.60;1.40
11059;DHT22;5582;59.272;15.220;2022-07-23T03:21:07;14.60;1.40
11059;DHT22;5582;59.272;15.220;2022-07-23T03:23:32;14.60;1.40
11059;DHT22;5582;59.272;15.220;2022-07-23T03:25:58;14.70;1.40
11059;DHT22;5582;59.272;15.220;2022-07-23T03:28:23;14.70;1.40
11059;DHT22;5582;59.272;15.220;2022-07-23T03:30:49;14.70;1.40
11059;DHT22;5582;59.272;15.220;2022-07-23T03:33:16;14.80;1.40
11059;DHT22;5582;59.272;15.220;2022-07-23T03:35:43;14.80;1.40
11059;DHT22;5582;59.272;15.220;2022-07-23T03:38:09;14.80;1.40
11059;DHT22;5582;59.272;15.220;2022-07-23T03:40:34;14.80;1.40
11059;DHT22;5582;59.272;15.220;2022-07-23T03:43:00;14.80;1.40
11059;DHT22;5582;59.272;15.220;2022-07-23T03:45:26;14.80;1.40
11059;DHT22;5582;59.272;15.220;2022-07-23T03:47:52;14.80;1.40
11059;DHT22;5582;59.272;15.220;2022-07-23T03:50:18;14.80;1.40
11059;DHT22;5582;59.272;15.220;2022-07-23T03:52:43;14.80;1.40
11059;DHT22;5582;59.272;15.220;2022-07-23T03:55:09;14.70;1.40
11059;DHT22;5582;59.272;15.220;2022-07-23T03:57:35;14.70;1.40
11059;DHT22;5582;59.272;15.220;2022-07-23T04:00:01;14.70;1.40
11059;DHT22;5582;59.272;15.220;2022-07-23T04:02:27;14.70;1.40
11059;DHT22;5582;59.272;15.220;2022-07-23T04:04:53;14.70;1.40
11059;DHT22;5582;59.272;15.220;2022-07-23T04:07:19;14.70;1.40
11059;DHT22;5582;59.272;15.220;2022-07-23T04:09:44;14.70;1.40
11059;DHT22;5582;59.272;15.220;2022-07-23T04:12:10;14.70;1.40
11059;DHT22;5582;59.272;15.220;2022-07-23T04:14:36;14.70;1.40
11059;DHT22;5582;59.272;15.220;2022-07-23T04:17:02;14.80;1.40
11059;DHT22;5582;59.272;15.220;2022-07-23T04:19:28;14.90;1.40
11059;DHT22;5582;59.272;15.220;2022-07-23T04:21:56;15.00;1.40
11059;DHT22;5582;59.272;15.220;2022-07-23T04:24:21;14.90;1.40
11059;DHT22;5582;59.272;15.220;2022-07-23T04:26:47;15.00;1.40
11059;DHT22;5582;59.272;15.220;2022-07-23T04:29:13;15.00;1.40
11059;DHT22;5582;59.272;15.220;2022-07-23T04:31:38;15.00;1.40
11059;DHT22;5582;59.272;15.220;2022-07-23T04:34:04;14.40;1.40
11059;DHT22;5582;59.272;15.220;2022-07-23T04:36:29;15.10;1.40
11059;DHT22;5582;59.272;15.220;2022-07-23T04:38:55;15.10;1.40
11059;DHT22;5582;59.272;15.220;2022-07-23T04:41:21;15.10;1.40
11059;DHT22;5582;59.272;15.220;2022-07-23T04:43:46;15.10;1.40
11059;DHT22;5582;59.272;15.220;2022-07-23T04:46:12;15.20;1.40
11059;DHT22;5582;59.272;15.220;2022-07-23T04:48:39;15.20;1.40
11059;DHT22;5582;59.272;15.220;2022-07-23T04:51:05;15.20;1.40
11059;DHT22;5582;59.272;15.220;2022-07-23T04:53:30;15.20;1.40
11059;DHT22;5582;59.272;15.220;2022-07-23T04:55:56;15.30;1.40
11059;DHT22;5582;59.272;15.220;2022-07-23T04:58:21;15.30;1.40
11059;DHT22;5582;59.272;15.220;2022-07-23T05:00:47;15.30;1.40
11059;DHT22;5582;59.272;15.220;2022-07-23T05:03:13;15.40;1.40
11059;DHT22;5582;59.272;15.220;2022-07-23T05:05:39;15.40;1.40
11059;DHT22;5582;59.272;15.220;2022-07-23T05:08:04;15.40;1.40
11059;DHT22;5582;59.272;15.220;2022-07-23T05:10:30;15.40;1.40
11059;DHT22;5582;59.272;15.220;2022-07-23T05:12:56;15.40;1.40
11059;DHT22;5582;59.272;15.220;2022-07-23T05:15:22;15.40;1.40
11059;DHT22;5582;59.272;15.220;2022-07-23T05:17:48;15.50;1.40
11059;DHT22;5582;59.272;15.220;2022-07-23T05:20:13;15.50;1.40
11059;DHT22;5582;59.272;15.220;2022-07-23T05:22:39;15.50;1.40
11059;DHT22;5582;59.272;15.220;2022-07-23T05:25:05;15.60;1.40
11059;DHT22;5582;59.272;15.220;2022-07-23T05:27:31;15.60;1.40
11059;DHT22;5582;59.272;15.220;2022-07-23T05:29:57;15.60;1.40
11059;DHT22;5582;59.272;15.220;2022-07-23T05:32:23;15.70;1.40
11059;DHT22;5582;59.272;15.220;2022-07-23T05:34:49;15.70;1.40
11059;DHT22;5582;59.272;15.220;2022-07-23T05:37:15;15.70;1.40
11059;DHT22;5582;59.272;15.220;2022-07-23T05:39:40;15.70;1.40
11059;DHT22;5582;59.272;15.220;2022-07-23T05:42:06;15.60;1.40
11059;DHT22;5582;59.272;15.220;2022-07-23T05:44:33;15.60;1.40
11059;DHT22;5582;59.272;15.220;2022-07-23T05:46:58;15.60;1.40
11059;DHT22;5582;59.272;15.220;2022-07-23T05:49:24;15.70;1.40
11059;DHT22;5582;59.272;15.220;2022-07-23T05:51:50;15.90;1.40
11059;DHT22;5582;59.272;15.220;2022-07-23T05:54:16;16.00;1.40
11059;DHT22;5582;59.272;15.220;2022-07-23T05:56:41;16.00;1.40
11059;DHT22;5582;59.272;15.220;2022-07-23T05:59:07;16.00;1.40
11059;DHT22;5582;59.272;15.220;2022-07-23T06:01:33;16.10;1.40
11059;DHT22;5582;59.272;15.220;2022-07-23T06:03:58;16.10;1.40
11059;DHT22;5582;59.272;15.220;2022-07-23T06:06:24;16.20;1.40
11059;DHT22;5582;59.272;15.220;2022-07-23T06:08:49;16.30;1.40
11059;DHT22;5582;59.272;15.220;2022-07-23T06:11:15;16.30;1.40
11059;DHT22;5582;59.272;15.220;2022-07-23T06:13:41;16.20;1.40
11059;DHT22;5582;59.272;15.220;2022-07-23T06:16:06;16.20;1.40
11059;DHT22;5582;59.272;15.220;2022-07-23T06:18:32;16.20;1.40
11059;DHT22;5582;59.272;15.220;2022-07-23T06:20:58;16.10;1.40
11059;DHT22;5582;59.272;15.220;2022-07-23T06:23:23;16.20;1.40
11059;DHT22;5582;59.272;15.220;2022-07-23T06:25:49;16.20;1.40
11059;DHT22;5582;59.272;15.220;2022-07-23T06:28:14;16.30;1.40
11059;DHT22;5582;59.272;15.220;2022-07-23T06:30:40;16.20;1.40
11059;DHT22;5582;59.272;15.220;2022-07-23T06:33:06;16.20;1.40
11059;DHT22;5582;59.272;15.220;2022-07-23T06:35:32;16.20;1.40
11059;DHT22;5582;59.272;15.220;2022-07-23T06:37:59;16.10;1.40
11059;DHT22;5582;59.272;15.220;2022-07-23T06:40:24;16.00;1.40
11059;DHT22;5582;59.272;15.220;2022-07-23T06:42:50;16.00;1.40
11059;DHT22;5582;59.272;15.220;2022-07-23T06:45:16;16.10;1.40
11059;DHT22;5582;59.272;15.220;2022-07-23T06:47:42;16.10;1.40
11059;DHT22;5582;59.272;15.220;2022-07-23T06:50:08;16.20;1.40
11059;DHT22;5582;59.272;15.220;2022-07-23T06:52:34;16.20;1.40
11059;DHT22;5582;59.272;15.220;2022-07-23T06:54:59;16.20;1.40
11059;DHT22;5582;59.272;15.220;2022-07-23T06:57:25;16.20;1.40
11059;DHT22;5582;59.272;15.220;2022-07-23T06:59:51;16.10;1.40
11059;DHT22;5582;59.272;15.220;2022-07-23T07:02:17;16.10;1.40
11059;DHT22;5582;59.272;15.220;2022-07-23T07:04:43;16.20;1.40
11059;DHT22;5582;59.272;15.220;2022-07-23T07:07:08;16.20;1.40
11059;DHT22;5582;59.272;15.220;2022-07-23T07:09:34;16.20;1.40
11059;DHT22;5582;59.272;15.220;2022-07-23T07:12:00;16.20;1.40
11059;DHT22;5582;59.272;15.220;2022-07-23T07:14:26;16.10;1.40
11059;DHT22;5582;59.272;15.220;2022-07-23T07:16:51;16.20;1.40
11059;DHT22;5582;59.272;15.220;2022-07-23T07:19:17;16.20;1.40
11059;DHT22;5582;59.272;15.220;2022-07-23T07:21:42;16.20;1.40
11059;DHT22;5582;59.272;15.220;2022-07-23T07:24:08;16.10;1.40
11059;DHT22;5582;59.272;15.220;2022-07-23T07:26:34;16.20;1.40
11059;DHT22;5582;59.272;15.220;2022-07-23T07:28:59;16.20;1.40
11059;DHT22;5582;59.272;15.220;2022-07-23T07:31:25;16.30;1.40
11059;DHT22;5582;59.272;15.220;2022-07-23T07:33:51;16.30;1.40
11059;DHT22;5582;59.272;15.220;2022-07-23T07:36:17;16.30;1.40
11059;DHT22;5582;59.272;15.220;2022-07-23T07:38:42;16.30;1.40
11059;DHT22;5582;59.272;15.220;2022-07-23T07:41:08;16.40;1.40
11059;DHT22;5582;59.272;15.220;2022-07-23T07:43:35;16.50;1.40
11059;DHT22;5582;59.272;15.220;2022-07-23T07:46:02;16.50;1.40
11059;DHT22;5582;59.272;15.220;2022-07-23T07:48:28;16.60;1.40
11059;DHT22;5582;59.272;15.220;2022-07-23T07:50:54;16.70;1.40
11059;DHT22;5582;59.272;15.220;2022-07-23T07:53:20;16.70;1.40
11059;DHT22;5582;59.272;15.220;2022-07-23T07:55:45;16.70;1.40
11059;DHT22;5582;59.272;15.220;2022-07-23T07:58:11;16.80;1.40
11059;DHT22;5582;59.272;15.220;2022-07-23T08:00:37;16.70;1.40
11059;DHT22;5582;59.272;15.220;2022-07-23T08:03:02;16.70;1.40
11059;DHT22;5582;59.272;15.220;2022-07-23T08:05:29;16.70;1.40
11059;DHT22;5582;59.272;15.220;2022-07-23T08:07:56;16.70;1.40
11059;DHT22;5582;59.272;15.220;2022-07-23T08:10:23;16.50;1.40
11059;DHT22;5582;59.272;15.220;2022-07-23T08:12:53;16.40;1.40
11059;DHT22;5582;59.272;15.220;2022-07-23T08:15:22;16.30;1.40
11059;DHT22;5582;59.272;15.220;2022-07-23T08:17:48;16.30;1.40
11059;DHT22;5582;59.272;15.220;2022-07-23T08:20:16;16.40;1.40
11059;DHT22;5582;59.272;15.220;2022-07-23T08:25:11;16.80;1.40
11059;DHT22;5582;59.272;15.220;2022-07-23T08:27:37;16.90;1.40
11059;DHT22;5582;59.272;15.220;2022-07-23T08:30:03;16.90;1.40
11059;DHT22;5582;59.272;15.220;2022-07-23T08:32:29;17.00;1.40
11059;DHT22;5582;59.272;15.220;2022-07-23T08:34:55;17.10;1.40
11059;DHT22;5582;59.272;15.220;2022-07-23T08:37:20;17.20;1.40
11059;DHT22;5582;59.272;15.220;2022-07-23T08:39:46;17.30;1.40
11059;DHT22;5582;59.272;15.220;2022-07-23T08:42:13;17.20;1.40
11059;DHT22;5582;59.272;15.220;2022-07-23T08:44:44;17.00;1.40
11059;DHT22;5582;59.272;15.220;2022-07-23T08:47:11;16.80;1.40
11059;DHT22;5582;59.272;15.220;2022-07-23T08:49:37;16.70;1.40
11059;DHT22;5582;59.272;15.220;2022-07-23T08:52:04;16.80;1.40
11059;DHT22;5582;59.272;15.220;2022-07-23T08:54:31;16.90;1.40
11059;DHT22;5582;59.272;15.220;2022-07-23T08:56:57;17.00;1.40
11059;DHT22;5582;59.272;15.220;2022-07-23T08:59:23;17.10;1.40
11059;DHT22;5582;59.272;15.220;2022-07-23T09:01:48;17.20;1.40
11059;DHT22;5582;59.272;15.220;2022-07-23T09:04:14;17.20;1.40
11059;DHT22;5582;59.272;15.220;2022-07-23T09:06:39;17.20;1.40
11059;DHT22;5582;59.272;15.220;2022-07-23T09:09:19;17.30;1.40
11059;DHT22;5582;59.272;15.220;2022-07-23T09:12:04;17.40;1.40
11059;DHT22;5582;59.272;15.220;2022-07-23T09:14:45;17.50;1.40
11059;DHT22;5582;59.272;15.220;2022-07-23T09:17:17;17.60;1.40
11059;DHT22;5582;59.272;15.220;2022-07-23T09:19:44;17.60;1.40
11059;DHT22;5582;59.272;15.220;2022-07-23T09:22:24;17.70;1.40
11059;DHT22;5582;59.272;15.220;2022-07-23T09:30:16;17.80;1.40
11059;DHT22;5582;59.272;15.220;2022-07-23T09:32:42;17.70;1.40
11059;DHT22;5582;59.272;15.220;2022-07-23T09:35:08;17.80;1.40
11059;DHT22;5582;59.272;15.220;2022-07-23T09:37:34;17.80;1.40
11059;DHT22;5582;59.272;15.220;2022-07-23T09:40:08;17.80;1.40
11059;DHT22;5582;59.272;15.220;2022-07-23T09:42:34;17.80;1.40
11059;DHT22;5582;59.272;15.220;2022-07-23T09:45:00;17.80;1.40
11059;DHT22;5582;59.272;15.220;2022-07-23T09:47:30;18.00;1.40
11059;DHT22;5582;59.272;15.220;2022-07-23T09:52:30;18.40;1.40
11059;DHT22;5582;59.272;15.220;2022-07-23T09:54:59;18.50;1.40
11059;DHT22;5582;59.272;15.220;2022-07-23T09:57:26;18.50;1.40
11059;DHT22;5582;59.272;15.220;2022-07-23T09:59:52;18.50;1.40
11059;DHT22;5582;59.272;15.220;2022-07-23T10:02:18;18.70;1.40
11059;DHT22;5582;59.272;15.220;2022-07-23T10:04:45;19.00;1.40
11059;DHT22;5582;59.272;15.220;2022-07-23T10:07:11;19.50;1.40
11059;DHT22;5582;59.272;15.220;2022-07-23T10:09:42;20.00;1.40
11059;DHT22;5582;59.272;15.220;2022-07-23T10:12:13;20.40;1.40
11059;DHT22;5582;59.272;15.220;2022-07-23T10:14:57;20.70;1.40
11059;DHT22;5582;59.272;15.220;2022-07-23T10:17:24;21.10;1.40
11059;DHT22;5582;59.272;15.220;2022-07-23T10:19:50;21.40;1.40
11059;DHT22;5582;59.272;15.220;2022-07-23T10:22:29;21.80;1.40
11059;DHT22;5582;59.272;15.220;2022-07-23T10:25:21;21.60;1.40
11059;DHT22;5582;59.272;15.220;2022-07-23T10:33:09;20.40;1.40
11059;DHT22;5582;59.272;15.220;2022-07-23T10:35:53;20.60;1.40
11059;DHT22;5582;59.272;15.220;2022-07-23T10:41:03;21.60;1.40
11059;DHT22;5582;59.272;15.220;2022-07-23T10:43:29;21.90;1.40
11059;DHT22;5582;59.272;15.220;2022-07-23T10:46:22;21.80;1.40
11059;DHT22;5582;59.272;15.220;2022-07-23T10:49:22;21.40;1.40
11059;DHT22;5582;59.272;15.220;2022-07-23T10:54:43;21.30;1.40
11059;DHT22;5582;59.272;15.220;2022-07-23T10:57:10;21.30;1.40
11059;DHT22;5582;59.272;15.220;2022-07-23T11:02:31;20.70;1.40
11059;DHT22;5582;59.272;15.220;2022-07-23T11:07:27;20.00;1.40
11059;DHT22;5582;59.272;15.220;2022-07-23T11:09:53;19.60;1.40
11059;DHT22;5582;59.272;15.220;2022-07-23T11:15:08;19.00;1.40
11059;DHT22;5582;59.272;15.220;2022-07-23T11:17:57;18.70;1.40
11059;DHT22;5582;59.272;15.220;2022-07-23T11:20:25;18.60;1.40
11059;DHT22;5582;59.272;15.220;2022-07-23T11:22:51;18.70;1.40
11059;DHT22;5582;59.272;15.220;2022-07-23T11:28:07;18.60;1.40
11059;DHT22;5582;59.272;15.220;2022-07-23T11:30:41;18.60;1.40
11059;DHT22;5582;59.272;15.220;2022-07-23T11:35:44;18.50;1.40
11059;DHT22;5582;59.272;15.220;2022-07-23T11:38:20;18.60;1.40
11059;DHT22;5582;59.272;15.220;2022-07-23T11:40:49;18.70;1.40
11059;DHT22;5582;59.272;15.220;2022-07-23T11:43:15;18.70;1.40
11059;DHT22;5582;59.272;15.220;2022-07-23T11:45:44;18.90;1.40
11059;DHT22;5582;59.272;15.220;2022-07-23T11:48:25;19.10;1.40
11059;DHT22;5582;59.272;15.220;2022-07-23T11:50:52;19.40;1.40
11059;DHT22;5582;59.272;15.220;2022-07-23T11:55:49;19.70;1.40
11059;DHT22;5582;59.272;15.220;2022-07-23T11:58:15;19.90;1.40
11059;DHT22;5582;59.272;15.220;2022-07-23T12:00:41;19.90;1.40
11059;DHT22;5582;59.272;15.220;2022-07-23T12:03:07;20.20;1.40
11059;DHT22;5582;59.272;15.220;2022-07-23T12:05:35;20.30;1.40
11059;DHT22;5582;59.272;15.220;2022-07-23T12:08:04;20.40;1.40
11059;DHT22;5582;59.272;15.220;2022-07-23T12:10:38;20.60;1.40
11059;DHT22;5582;59.272;15.220;2022-07-23T12:13:06;20.90;1.40
11059;DHT22;5582;59.272;15.220;2022-07-23T12:15:34;21.10;1.40
11059;DHT22;5582;59.272;15.220;2022-07-23T12:18:03;21.10;1.40
11059;DHT22;5582;59.272;15.220;2022-07-23T12:20:35;21.00;1.40
11059;DHT22;5582;59.272;15.220;2022-07-23T12:23:04;20.80;1.40
11059;DHT22;5582;59.272;15.220;2022-07-23T12:25:32;20.80;1.40
11059;DHT22;5582;59.272;15.220;2022-07-23T12:33:11;20.80;1.40
11059;DHT22;5582;59.272;15.220;2022-07-23T12:35:42;20.80;1.40
11059;DHT22;5582;59.272;15.220;2022-07-23T12:38:14;20.60;1.40
11059;DHT22;5582;59.272;15.220;2022-07-23T12:40:51;20.50;1.40
11059;DHT22;5582;59.272;15.220;2022-07-23T12:43:28;20.50;1.40
11059;DHT22;5582;59.272;15.220;2022-07-23T12:48:34;21.00;1.40
11059;DHT22;5582;59.272;15.220;2022-07-23T12:51:14;21.40;1.40
11059;DHT22;5582;59.272;15.220;2022-07-23T12:53:42;21.80;1.40
11059;DHT22;5582;59.272;15.220;2022-07-23T12:56:13;22.00;1.40
11059;DHT22;5582;59.272;15.220;2022-07-23T12:58:53;22.20;1.40
11059;DHT22;5582;59.272;15.220;2022-07-23T13:06:20;21.70;1.40
11059;DHT22;5582;59.272;15.220;2022-07-23T13:08:46;21.50;1.40
11059;DHT22;5582;59.272;15.220;2022-07-23T13:11:11;21.40;1.40
11059;DHT22;5582;59.272;15.220;2022-07-23T13:13:37;21.20;1.40
11059;DHT22;5582;59.272;15.220;2022-07-23T13:16:03;21.00;1.40
11059;DHT22;5582;59.272;15.220;2022-07-23T13:18:29;20.80;1.40
11059;DHT22;5582;59.272;15.220;2022-07-23T13:20:55;20.70;1.40
11059;DHT22;5582;59.272;15.220;2022-07-23T13:23:21;20.50;1.40
11059;DHT22;5582;59.272;15.220;2022-07-23T13:25:48;20.30;1.40
11059;DHT22;5582;59.272;15.220;2022-07-23T13:28:15;20.10;1.40
11059;DHT22;5582;59.272;15.220;2022-07-23T13:30:41;20.00;1.40
11059;DHT22;5582;59.272;15.220;2022-07-23T13:33:07;19.90;1.40
11059;DHT22;5582;59.272;15.220;2022-07-23T13:35:35;19.90;1.40
11059;DHT22;5582;59.272;15.220;2022-07-23T13:38:02;19.90;1.40
11059;DHT22;5582;59.272;15.220;2022-07-23T13:40:28;20.00;1.40
11059;DHT22;5582;59.272;15.220;2022-07-23T13:42:54;20.10;1.40
11059;DHT22;5582;59.272;15.220;2022-07-23T13:45:20;20.00;1.40
11059;DHT22;5582;59.272;15.220;2022-07-23T13:47:45;19.90;1.40
11059;DHT22;5582;59.272;15.220;2022-07-23T13:50:11;19.90;1.40
11059;DHT22;5582;59.272;15.220;2022-07-23T13:52:37;19.90;1.40
11059;DHT22;5582;59.272;15.220;2022-07-23T13:55:06;20.20;1.40
11059;DHT22;5582;59.272;15.220;2022-07-23T13:57:32;20.40;1.40
11059;DHT22;5582;59.272;15.220;2022-07-23T13:59:58;20.70;1.40
11059;DHT22;5582;59.272;15.220;2022-07-23T14:02:24;20.80;1.40
11059;DHT22;5582;59.272;15.220;2022-07-23T14:04:50;20.90;1.40
11059;DHT22;5582;59.272;15.220;2022-07-23T14:07:17;20.90;1.40
11059;DHT22;5582;59.272;15.220;2022-07-23T14:09:42;20.90;1.40
11059;DHT22;5582;59.272;15.220;2022-07-23T14:12:08;20.90;1.40
11059;DHT22;5582;59.272;15.220;2022-07-23T14:14:34;20.90;1.40
11059;DHT22;5582;59.272;15.220;2022-07-23T14:17:00;20.90;1.40
11059;DHT22;5582;59.272;15.220;2022-07-23T14:19:26;20.90;1.40
11059;DHT22;5582;59.272;15.220;2022-07-23T14:21:52;20.80;1.40
11059;DHT22;5582;59.272;15.220;2022-07-23T14:24:18;20.60;1.40
11059;DHT22;5582;59.272;15.220;2022-07-23T14:26:43;20.60;1.40
11059;DHT22;5582;59.272;15.220;2022-07-23T14:29:09;20.50;1.40
11059;DHT22;5582;59.272;15.220;2022-07-23T14:31:35;20.60;1.40
11059;DHT22;5582;59.272;15.220;2022-07-23T14:34:01;20.70;1.40
11059;DHT22;5582;59.272;15.220;2022-07-23T14:36:27;20.80;1.40
11059;DHT22;5582;59.272;15.220;2022-07-23T14:38:52;20.90;1.40
11059;DHT22;5582;59.272;15.220;2022-07-23T14:41:18;21.10;1.40
11059;DHT22;5582;59.272;15.220;2022-07-23T14:43:44;21.40;1.40
11059;DHT22;5582;59.272;15.220;2022-07-23T14:46:12;21.60;1.40
11059;DHT22;5582;59.272;15.220;2022-07-23T14:48:38;21.60;1.40
11059;DHT22;5582;59.272;15.220;2022-07-23T14:51:03;21.70;1.40
11059;DHT22;5582;59.272;15.220;2022-07-23T14:53:30;21.80;1.40
11059;DHT22;5582;59.272;15.220;2022-07-23T14:55:55;21.80;1.40
11059;DHT22;5582;59.272;15.220;2022-07-23T14:58:23;22.00;1.40
11059;DHT22;5582;59.272;15.220;2022-07-23T15:00:49;22.10;1.40
11059;DHT22;5582;59.272;15.220;2022-07-23T15:03:15;22.20;1.40
11059;DHT22;5582;59.272;15.220;2022-07-23T15:05:41;22.40;1.40
11059;DHT22;5582;59.272;15.220;2022-07-23T15:08:07;22.60;1.40
11059;DHT22;5582;59.272;15.220;2022-07-23T15:10:33;22.50;1.40
11059;DHT22;5582;59.272;15.220;2022-07-23T15:12:58;22.70;1.40
11059;DHT22;5582;59.272;15.220;2022-07-23T15:15:24;22.80;1.40
11059;DHT22;5582;59.272;15.220;2022-07-23T15:17:50;22.80;1.40
11059;DHT22;5582;59.272;15.220;2022-07-23T15:20:15;22.80;1.40
11059;DHT22;5582;59.272;15.220;2022-07-23T15:22:41;22.80;1.40
11059;DHT22;5582;59.272;15.220;2022-07-23T15:25:07;22.80;1.40
11059;DHT22;5582;59.272;15.220;2022-07-23T15:27:33;22.80;1.40
11059;DHT22;5582;59.272;15.220;2022-07-23T15:29:59;22.60;1.40
11059;DHT22;5582;59.272;15.220;2022-07-23T15:32:24;22.60;1.40
11059;DHT22;5582;59.272;15.220;2022-07-23T15:34:55;22.40;1.40
11059;DHT22;5582;59.272;15.220;2022-07-23T15:37:21;22.20;1.40
11059;DHT22;5582;59.272;15.220;2022-07-23T15:39:49;22.00;1.40
11059;DHT22;5582;59.272;15.220;2022-07-23T15:42:15;21.90;1.40
11059;DHT22;5582;59.272;15.220;2022-07-23T15:44:42;21.80;1.40
11059;DHT22;5582;59.272;15.220;2022-07-23T15:47:13;21.60;1.40
11059;DHT22;5582;59.272;15.220;2022-07-23T15:49:39;21.50;1.40
11059;DHT22;5582;59.272;15.220;2022-07-23T15:52:05;21.20;1.40
11059;DHT22;5582;59.272;15.220;2022-07-23T15:54:31;21.40;1.40
11059;DHT22;5582;59.272;15.220;2022-07-23T15:56:57;21.20;1.40
11059;DHT22;5582;59.272;15.220;2022-07-23T15:59:22;21.20;1.40
11059;DHT22;5582;59.272;15.220;2022-07-23T16:01:48;21.20;1.40
11059;DHT22;5582;59.272;15.220;2022-07-23T16:04:14;21.10;1.40
11059;DHT22;5582;59.272;15.220;2022-07-23T16:06:41;21.20;1.40
11059;DHT22;5582;59.272;15.220;2022-07-23T16:09:07;21.20;1.40
11059;DHT22;5582;59.272;15.220;2022-07-23T16:11:34;21.10;1.40
11059;DHT22;5582;59.272;15.220;2022-07-23T16:14:00;20.90;1.40
11059;DHT22;5582;59.272;15.220;2022-07-23T16:16:26;20.80;1.40
11059;DHT22;5582;59.272;15.220;2022-07-23T16:18:53;20.60;1.40
11059;DHT22;5582;59.272;15.220;2022-07-23T16:21:19;20.50;1.40
11059;DHT22;5582;59.272;15.220;2022-07-23T16:23:45;20.50;1.40
11059;DHT22;5582;59.272;15.220;2022-07-23T16:26:11;20.30;1.40
11059;DHT22;5582;59.272;15.220;2022-07-23T16:28:37;20.30;1.40
11059;DHT22;5582;59.272;15.220;2022-07-23T16:31:03;20.20;1.40
11059;DHT22;5582;59.272;15.220;2022-07-23T16:33:28;20.00;1.40